sensor_id;sensor_type;location;lat;lon;timestamp;P1;durP1;ratioP1;P2;durP2;ratioP2
20567;SDS011;10442;49.932;11.592;2022-12-18T00:01:26;19.23;;;12.00;;
20567;SDS011;10442;49.932;11.592;2022-12-18T00:04:00;21.83;;;12.33;;
20567;SDS011;10442;49.932;11.592;2022-12-18T00:06:33;17.43;;;13.07;;
20567;SDS011;10442;49.932;11.592;2022-12-18T00:09:02;17.77;;;12.00;;
20567;SDS011;10442;49.932;11.592;2022-12-18T00:11:30;17.60;;;10.70;;
20567;SDS011;10442;49.932;11.592;2022-12-18T00:13:59;18.17;;;12.13;;
20567;SDS011;10442;49.932;11.592;2022-12-18T00:16:27;17.40;;;12.10;;
20567;SDS011;10442;49.932;11.592;2022-12-18T00:18:58;19.90;;;12.30;;
20567;SDS011;10442;49.932;11.592;2022-12-18T00:21:27;17.83;;;11.70;;
20567;SDS011;10442;49.932;11.592;2022-12-18T00:23:56;16.73;;;11.43;;
20567;SDS011;10442;49.932;11.592;2022-12-18T00:26:25;15.20;;;10.67;;
20567;SDS011;10442;49.932;11.592;2022-12-18T00:29:09;19.50;;;13.47;;
20567;SDS011;10442;49.932;11.592;2022-12-18T00:31:38;16.03;;;10.67;;
20567;SDS011;10442;49.932;11.592;2022-12-18T00:34:06;13.13;;;10.30;;
20567;SDS011;10442;49.932;11.592;2022-12-18T00:36:39;20.40;;;11.93;;
20567;SDS011;10442;49.932;11.592;2022-12-18T00:39:07;16.17;;;12.47;;
20567;SDS011;10442;49.932;11.592;2022-12-18T00:41:36;18.17;;;11.80;;
20567;SDS011;10442;49.932;11.592;2022-12-18T00:44:23;18.13;;;9.93;;
20567;SDS011;10442;49.932;11.592;2022-12-18T00:46:50;17.93;;;11.50;;
20567;SDS011;10442;49.932;11.592;2022-12-18T00:49:18;16.27;;;11.37;;
20567;SDS011;10442;49.932;11.592;2022-12-18T00:51:47;16.97;;;12.60;;
20567;SDS011;10442;49.932;11.592;2022-12-18T00:54:15;16.27;;;11.17;;
20567;SDS011;10442;49.932;11.592;2022-12-18T00:56:44;14.73;;;10.13;;
20567;SDS011;10442;49.932;11.592;2022-12-18T00:59:16;17.33;;;13.17;;
20567;SDS011;10442;49.932;11.592;2022-12-18T01:01:44;18.13;;;10.70;;
20567;SDS011;10442;49.932;11.592;2022-12-18T01:04:13;22.17;;;12.73;;
20567;SDS011;10442;49.932;11.592;2022-12-18T01:06:44;15.70;;;11.73;;
20567;SDS011;10442;49.932;11.592;2022-12-18T01:09:12;18.30;;;11.80;;
20567;SDS011;10442;49.932;11.592;2022-12-18T01:11:40;15.57;;;11.63;;
20567;SDS011;10442;49.932;11.592;2022-12-18T01:14:07;16.73;;;11.20;;
20567;SDS011;10442;49.932;11.592;2022-12-18T01:16:37;18.60;;;11.10;;
20567;SDS011;10442;49.932;11.592;2022-12-18T01:19:04;16.90;;;10.70;;
20567;SDS011;10442;49.932;11.592;2022-12-18T01:21:33;12.63;;;10.13;;
20567;SDS011;10442;49.932;11.592;2022-12-18T01:24:03;14.93;;;10.73;;
20567;SDS011;10442;49.932;11.592;2022-12-18T01:26:31;20.53;;;11.73;;
20567;SDS011;10442;49.932;11.592;2022-12-18T01:28:59;20.03;;;12.53;;
20567;SDS011;10442;49.932;11.592;2022-12-18T01:31:27;20.33;;;12.90;;
20567;SDS011;10442;49.932;11.592;2022-12-18T01:33:57;16.23;;;12.03;;
20567;SDS011;10442;49.932;11.592;2022-12-18T01:36:31;17.17;;;10.03;;
20567;SDS011;10442;49.932;11.592;2022-12-18T01:39:01;16.90;;;11.50;;
20567;SDS011;10442;49.932;11.592;2022-12-18T01:41:34;19.70;;;12.60;;
20567;SDS011;10442;49.932;11.592;2022-12-18T01:50:22;14.73;;;9.50;;
20567;SDS011;10442;49.932;11.592;2022-12-18T01:55:49;22.10;;;10.90;;
20567;SDS011;10442;49.932;11.592;2022-12-18T01:58:21;21.63;;;12.83;;
20567;SDS011;10442;49.932;11.592;2022-12-18T02:00:56;19.47;;;13.03;;
20567;SDS011;10442;49.932;11.592;2022-12-18T02:03:24;17.17;;;11.70;;
20567;SDS011;10442;49.932;11.592;2022-12-18T02:08:58;15.70;;;11.47;;
20567;SDS011;10442;49.932;11.592;2022-12-18T02:14:48;13.27;;;11.00;;
20567;SDS011;10442;49.932;11.592;2022-12-18T02:17:35;17.07;;;13.77;;
20567;SDS011;10442;49.932;11.592;2022-12-18T02:20:13;21.57;;;13.53;;
20567;SDS011;10442;49.932;11.592;2022-12-18T02:28:36;17.27;;;12.70;;
20567;SDS011;10442;49.932;11.592;2022-12-18T02:31:12;20.83;;;13.87;;
20567;SDS011;10442;49.932;11.592;2022-12-18T02:33:43;17.23;;;11.30;;
20567;SDS011;10442;49.932;11.592;2022-12-18T02:36:12;16.23;;;11.63;;
20567;SDS011;10442;49.932;11.592;2022-12-18T02:38:43;17.87;;;12.47;;
20567;SDS011;10442;49.932;11.592;2022-12-18T02:41:14;23.33;;;13.90;;
20567;SDS011;10442;49.932;11.592;2022-12-18T02:43:53;16.30;;;14.00;;
20567;SDS011;10442;49.932;11.592;2022-12-18T02:46:26;13.37;;;10.27;;
20567;SDS011;10442;49.932;11.592;2022-12-18T03:03:29;19.93;;;12.47;;
20567;SDS011;10442;49.932;11.592;2022-12-18T03:06:04;15.40;;;10.77;;
20567;SDS011;10442;49.932;11.592;2022-12-18T03:08:37;15.63;;;10.40;;
20567;SDS011;10442;49.932;11.592;2022-12-18T03:11:09;20.40;;;12.30;;
20567;SDS011;10442;49.932;11.592;2022-12-18T03:13:48;19.17;;;12.77;;
20567;SDS011;10442;49.932;11.592;2022-12-18T03:16:24;20.47;;;11.63;;
20567;SDS011;10442;49.932;11.592;2022-12-18T03:18:55;15.50;;;11.23;;
20567;SDS011;10442;49.932;11.592;2022-12-18T03:21:51;20.67;;;12.30;;
20567;SDS011;10442;49.932;11.592;2022-12-18T03:24:24;15.43;;;10.40;;
20567;SDS011;10442;49.932;11.592;2022-12-18T03:26:54;17.07;;;11.30;;
20567;SDS011;10442;49.932;11.592;2022-12-18T03:29:29;22.13;;;13.33;;
20567;SDS011;10442;49.932;11.592;2022-12-18T03:32:09;15.50;;;10.60;;
20567;SDS011;10442;49.932;11.592;2022-12-18T03:34:42;21.23;;;12.77;;
20567;SDS011;10442;49.932;11.592;2022-12-18T03:37:16;17.90;;;12.07;;
20567;SDS011;10442;49.932;11.592;2022-12-18T03:39:44;15.40;;;11.33;;
20567;SDS011;10442;49.932;11.592;2022-12-18T03:44:54;22.17;;;12.60;;
20567;SDS011;10442;49.932;11.592;2022-12-18T03:47:27;21.07;;;14.67;;
20567;SDS011;10442;49.932;11.592;2022-12-18T03:50:48;18.93;;;10.13;;
20567;SDS011;10442;49.932;11.592;2022-12-18T03:53:18;22.40;;;12.73;;
20567;SDS011;10442;49.932;11.592;2022-12-18T03:56:00;15.30;;;11.93;;
20567;SDS011;10442;49.932;11.592;2022-12-18T03:58:35;14.70;;;10.23;;
20567;SDS011;10442;49.932;11.592;2022-12-18T04:01:20;18.93;;;12.30;;
20567;SDS011;10442;49.932;11.592;2022-12-18T04:03:56;15.03;;;9.70;;
20567;SDS011;10442;49.932;11.592;2022-12-18T04:06:29;18.30;;;13.23;;
20567;SDS011;10442;49.932;11.592;2022-12-18T04:09:02;17.10;;;10.87;;
20567;SDS011;10442;49.932;11.592;2022-12-18T04:11:35;19.17;;;13.90;;
20567;SDS011;10442;49.932;11.592;2022-12-18T04:14:04;14.83;;;9.23;;
20567;SDS011;10442;49.932;11.592;2022-12-18T04:16:34;19.30;;;12.13;;
20567;SDS011;10442;49.932;11.592;2022-12-18T04:19:04;13.70;;;9.90;;
20567;SDS011;10442;49.932;11.592;2022-12-18T04:21:38;17.17;;;9.83;;
20567;SDS011;10442;49.932;11.592;2022-12-18T04:24:06;18.40;;;13.63;;
20567;SDS011;10442;49.932;11.592;2022-12-18T04:26:36;18.97;;;10.60;;
20567;SDS011;10442;49.932;11.592;2022-12-18T04:29:14;17.37;;;10.93;;
20567;SDS011;10442;49.932;11.592;2022-12-18T04:31:42;16.40;;;10.17;;
20567;SDS011;10442;49.932;11.592;2022-12-18T04:34:10;16.93;;;10.60;;
20567;SDS011;10442;49.932;11.592;2022-12-18T04:36:44;19.03;;;12.00;;
20567;SDS011;10442;49.932;11.592;2022-12-18T04:39:13;17.40;;;11.83;;
20567;SDS011;10442;49.932;11.592;2022-12-18T04:41:45;18.90;;;10.67;;
20567;SDS011;10442;49.932;11.592;2022-12-18T04:44:13;18.90;;;11.80;;
20567;SDS011;10442;49.932;11.592;2022-12-18T04:46:41;18.43;;;11.93;;
20567;SDS011;10442;49.932;11.592;2022-12-18T04:49:08;18.93;;;10.53;;
20567;SDS011;10442;49.932;11.592;2022-12-18T04:51:37;21.47;;;12.37;;
20567;SDS011;10442;49.932;11.592;2022-12-18T04:54:04;19.23;;;12.10;;
20567;SDS011;10442;49.932;11.592;2022-12-18T04:56:32;17.17;;;11.13;;
20567;SDS011;10442;49.932;11.592;2022-12-18T04:58:59;15.60;;;11.50;;
20567;SDS011;10442;49.932;11.592;2022-12-18T05:01:27;16.33;;;11.83;;
20567;SDS011;10442;49.932;11.592;2022-12-18T05:04:00;15.90;;;10.03;;
20567;SDS011;10442;49.932;11.592;2022-12-18T05:06:28;15.23;;;11.03;;
20567;SDS011;10442;49.932;11.592;2022-12-18T05:08:56;17.03;;;11.00;;
20567;SDS011;10442;49.932;11.592;2022-12-18T05:11:23;18.77;;;12.57;;
20567;SDS011;10442;49.932;11.592;2022-12-18T05:13:51;14.33;;;12.33;;
20567;SDS011;10442;49.932;11.592;2022-12-18T05:16:19;23.67;;;12.47;;
20567;SDS011;10442;49.932;11.592;2022-12-18T05:18:46;16.87;;;11.20;;
20567;SDS011;10442;49.932;11.592;2022-12-18T05:21:13;23.53;;;12.90;;
20567;SDS011;10442;49.932;11.592;2022-12-18T05:23:41;20.80;;;13.43;;
20567;SDS011;10442;49.932;11.592;2022-12-18T05:26:09;20.43;;;12.60;;
20567;SDS011;10442;49.932;11.592;2022-12-18T05:28:43;16.17;;;11.33;;
20567;SDS011;10442;49.932;11.592;2022-12-18T05:31:11;18.33;;;12.80;;
20567;SDS011;10442;49.932;11.592;2022-12-18T05:33:38;24.97;;;14.93;;
20567;SDS011;10442;49.932;11.592;2022-12-18T05:36:07;18.37;;;13.23;;
20567;SDS011;10442;49.932;11.592;2022-12-18T05:38:36;24.07;;;14.70;;
20567;SDS011;10442;49.932;11.592;2022-12-18T05:41:05;23.87;;;13.73;;
20567;SDS011;10442;49.932;11.592;2022-12-18T05:43:34;22.80;;;13.70;;
20567;SDS011;10442;49.932;11.592;2022-12-18T05:46:04;25.50;;;14.63;;
20567;SDS011;10442;49.932;11.592;2022-12-18T05:48:32;22.90;;;13.97;;
20567;SDS011;10442;49.932;11.592;2022-12-18T05:51:04;22.00;;;14.53;;
20567;SDS011;10442;49.932;11.592;2022-12-18T05:53:34;21.50;;;13.30;;
20567;SDS011;10442;49.932;11.592;2022-12-18T05:56:03;29.10;;;16.30;;
20567;SDS011;10442;49.932;11.592;2022-12-18T05:58:33;21.37;;;14.50;;
20567;SDS011;10442;49.932;11.592;2022-12-18T06:03:40;21.70;;;14.10;;
20567;SDS011;10442;49.932;11.592;2022-12-18T06:06:17;22.33;;;14.07;;
20567;SDS011;10442;49.932;11.592;2022-12-18T06:08:52;23.63;;;15.13;;
20567;SDS011;10442;49.932;11.592;2022-12-18T06:11:21;23.30;;;13.87;;
20567;SDS011;10442;49.932;11.592;2022-12-18T06:13:52;20.97;;;13.30;;
20567;SDS011;10442;49.932;11.592;2022-12-18T06:16:25;25.17;;;14.93;;
20567;SDS011;10442;49.932;11.592;2022-12-18T06:18:57;20.67;;;12.27;;
20567;SDS011;10442;49.932;11.592;2022-12-18T06:21:27;25.63;;;12.27;;
20567;SDS011;10442;49.932;11.592;2022-12-18T06:23:55;20.60;;;13.60;;
20567;SDS011;10442;49.932;11.592;2022-12-18T06:26:23;22.93;;;14.73;;
20567;SDS011;10442;49.932;11.592;2022-12-18T06:28:54;22.57;;;14.17;;
20567;SDS011;10442;49.932;11.592;2022-12-18T06:31:23;29.93;;;14.20;;
20567;SDS011;10442;49.932;11.592;2022-12-18T06:33:51;19.07;;;13.13;;
20567;SDS011;10442;49.932;11.592;2022-12-18T06:36:20;31.57;;;15.60;;
20567;SDS011;10442;49.932;11.592;2022-12-18T06:38:48;28.53;;;15.67;;
20567;SDS011;10442;49.932;11.592;2022-12-18T06:41:17;23.10;;;14.07;;
20567;SDS011;10442;49.932;11.592;2022-12-18T06:43:46;26.97;;;16.00;;
20567;SDS011;10442;49.932;11.592;2022-12-18T06:46:14;24.70;;;14.80;;
20567;SDS011;10442;49.932;11.592;2022-12-18T06:48:41;22.47;;;13.63;;
20567;SDS011;10442;49.932;11.592;2022-12-18T06:51:09;30.00;;;16.37;;
20567;SDS011;10442;49.932;11.592;2022-12-18T06:53:37;26.53;;;16.30;;
20567;SDS011;10442;49.932;11.592;2022-12-18T06:56:05;23.20;;;13.57;;
20567;SDS011;10442;49.932;11.592;2022-12-18T06:58:37;22.93;;;13.30;;
20567;SDS011;10442;49.932;11.592;2022-12-18T07:01:08;17.53;;;10.23;;
20567;SDS011;10442;49.932;11.592;2022-12-18T07:03:37;16.30;;;10.50;;
20567;SDS011;10442;49.932;11.592;2022-12-18T07:06:15;17.37;;;10.77;;
20567;SDS011;10442;49.932;11.592;2022-12-18T07:08:47;17.27;;;13.30;;
20567;SDS011;10442;49.932;11.592;2022-12-18T07:11:16;20.23;;;11.67;;
20567;SDS011;10442;49.932;11.592;2022-12-18T07:13:45;17.67;;;10.00;;
20567;SDS011;10442;49.932;11.592;2022-12-18T07:16:14;15.93;;;10.37;;
20567;SDS011;10442;49.932;11.592;2022-12-18T07:18:51;17.60;;;10.50;;
20567;SDS011;10442;49.932;11.592;2022-12-18T07:21:19;18.83;;;10.63;;
20567;SDS011;10442;49.932;11.592;2022-12-18T07:23:47;20.27;;;11.33;;
20567;SDS011;10442;49.932;11.592;2022-12-18T07:26:16;20.80;;;12.23;;
20567;SDS011;10442;49.932;11.592;2022-12-18T07:28:45;15.57;;;10.83;;
20567;SDS011;10442;49.932;11.592;2022-12-18T07:31:15;17.67;;;12.77;;
20567;SDS011;10442;49.932;11.592;2022-12-18T07:33:44;21.43;;;11.00;;
20567;SDS011;10442;49.932;11.592;2022-12-18T07:36:13;23.00;;;11.30;;
20567;SDS011;10442;49.932;11.592;2022-12-18T07:38:40;19.40;;;12.07;;
20567;SDS011;10442;49.932;11.592;2022-12-18T07:41:09;15.80;;;10.47;;
20567;SDS011;10442;49.932;11.592;2022-12-18T07:43:39;12.93;;;10.77;;
20567;SDS011;10442;49.932;11.592;2022-12-18T07:46:08;17.70;;;11.60;;
20567;SDS011;10442;49.932;11.592;2022-12-18T07:48:40;15.13;;;11.57;;
20567;SDS011;10442;49.932;11.592;2022-12-18T07:51:08;19.30;;;11.30;;
20567;SDS011;10442;49.932;11.592;2022-12-18T07:53:39;19.17;;;10.77;;
20567;SDS011;10442;49.932;11.592;2022-12-18T07:56:09;23.70;;;13.00;;
20567;SDS011;10442;49.932;11.592;2022-12-18T07:58:56;17.20;;;12.20;;
20567;SDS011;10442;49.932;11.592;2022-12-18T08:01:24;15.00;;;11.23;;
20567;SDS011;10442;49.932;11.592;2022-12-18T08:03:53;25.40;;;13.77;;
20567;SDS011;10442;49.932;11.592;2022-12-18T08:06:20;20.93;;;12.00;;
20567;SDS011;10442;49.932;11.592;2022-12-18T08:08:54;23.00;;;13.23;;
20567;SDS011;10442;49.932;11.592;2022-12-18T08:11:22;21.27;;;12.07;;
20567;SDS011;10442;49.932;11.592;2022-12-18T08:13:55;20.33;;;13.47;;
20567;SDS011;10442;49.932;11.592;2022-12-18T08:16:24;17.00;;;10.63;;
20567;SDS011;10442;49.932;11.592;2022-12-18T08:18:52;20.60;;;13.07;;
20567;SDS011;10442;49.932;11.592;2022-12-18T08:21:22;15.67;;;10.13;;
20567;SDS011;10442;49.932;11.592;2022-12-18T08:23:52;12.40;;;9.47;;
20567;SDS011;10442;49.932;11.592;2022-12-18T08:26:20;18.97;;;11.13;;
20567;SDS011;10442;49.932;11.592;2022-12-18T08:28:49;17.90;;;11.10;;
20567;SDS011;10442;49.932;11.592;2022-12-18T08:31:17;16.93;;;11.47;;
20567;SDS011;10442;49.932;11.592;2022-12-18T08:33:50;17.20;;;10.83;;
20567;SDS011;10442;49.932;11.592;2022-12-18T08:36:20;16.07;;;10.60;;
20567;SDS011;10442;49.932;11.592;2022-12-18T08:38:48;13.67;;;10.73;;
20567;SDS011;10442;49.932;11.592;2022-12-18T08:41:16;19.23;;;11.90;;
20567;SDS011;10442;49.932;11.592;2022-12-18T08:43:45;16.33;;;10.87;;
20567;SDS011;10442;49.932;11.592;2022-12-18T08:46:35;16.77;;;10.23;;
20567;SDS011;10442;49.932;11.592;2022-12-18T08:49:08;15.57;;;10.40;;
20567;SDS011;10442;49.932;11.592;2022-12-18T08:51:36;15.30;;;10.50;;
20567;SDS011;10442;49.932;11.592;2022-12-18T08:54:05;16.83;;;9.97;;
20567;SDS011;10442;49.932;11.592;2022-12-18T08:56:33;20.17;;;9.90;;
20567;SDS011;10442;49.932;11.592;2022-12-18T08:59:01;18.60;;;10.90;;
20567;SDS011;10442;49.932;11.592;2022-12-18T09:01:29;14.87;;;9.13;;
20567;SDS011;10442;49.932;11.592;2022-12-18T09:03:57;15.90;;;10.43;;
20567;SDS011;10442;49.932;11.592;2022-12-18T09:06:25;16.17;;;10.57;;
20567;SDS011;10442;49.932;11.592;2022-12-18T09:08:53;16.67;;;12.83;;
20567;SDS011;10442;49.932;11.592;2022-12-18T09:11:21;12.93;;;9.53;;
20567;SDS011;10442;49.932;11.592;2022-12-18T09:13:51;16.33;;;10.17;;
20567;SDS011;10442;49.932;11.592;2022-12-18T09:16:21;14.00;;;9.53;;
20567;SDS011;10442;49.932;11.592;2022-12-18T09:18:56;12.70;;;9.07;;
20567;SDS011;10442;49.932;11.592;2022-12-18T09:21:27;16.03;;;9.33;;
20567;SDS011;10442;49.932;11.592;2022-12-18T09:24:03;16.73;;;10.80;;
20567;SDS011;10442;49.932;11.592;2022-12-18T09:26:35;14.80;;;9.13;;
20567;SDS011;10442;49.932;11.592;2022-12-18T09:29:03;17.60;;;10.33;;
20567;SDS011;10442;49.932;11.592;2022-12-18T09:31:30;16.87;;;11.53;;
20567;SDS011;10442;49.932;11.592;2022-12-18T09:33:58;14.23;;;10.87;;
20567;SDS011;10442;49.932;11.592;2022-12-18T09:36:26;16.67;;;10.73;;
20567;SDS011;10442;49.932;11.592;2022-12-18T09:38:53;16.37;;;10.40;;
20567;SDS011;10442;49.932;11.592;2022-12-18T09:44:13;15.60;;;10.47;;
20567;SDS011;10442;49.932;11.592;2022-12-18T09:49:34;12.53;;;8.77;;
20567;SDS011;10442;49.932;11.592;2022-12-18T09:52:32;16.93;;;10.53;;
20567;SDS011;10442;49.932;11.592;2022-12-18T09:55:05;11.63;;;8.27;;
20567;SDS011;10442;49.932;11.592;2022-12-18T09:58:04;11.27;;;8.20;;
20567;SDS011;10442;49.932;11.592;2022-12-18T10:00:40;18.73;;;10.60;;
20567;SDS011;10442;49.932;11.592;2022-12-18T10:03:10;14.40;;;10.00;;
20567;SDS011;10442;49.932;11.592;2022-12-18T10:14:08;14.37;;;9.87;;
20567;SDS011;10442;49.932;11.592;2022-12-18T10:19:45;11.80;;;8.00;;
20567;SDS011;10442;49.932;11.592;2022-12-18T10:27:46;12.57;;;9.13;;
20567;SDS011;10442;49.932;11.592;2022-12-18T10:30:18;13.30;;;9.30;;
20567;SDS011;10442;49.932;11.592;2022-12-18T10:32:48;12.07;;;9.10;;
20567;SDS011;10442;49.932;11.592;2022-12-18T10:35:25;14.73;;;10.67;;
20567;SDS011;10442;49.932;11.592;2022-12-18T10:41:02;13.60;;;9.70;;
20567;SDS011;10442;49.932;11.592;2022-12-18T10:51:23;14.97;;;9.60;;
20567;SDS011;10442;49.932;11.592;2022-12-18T10:53:59;13.53;;;10.13;;
20567;SDS011;10442;49.932;11.592;2022-12-18T10:56:28;12.70;;;9.70;;
20567;SDS011;10442;49.932;11.592;2022-12-18T10:59:03;11.87;;;9.13;;
20567;SDS011;10442;49.932;11.592;2022-12-18T11:01:52;13.10;;;8.97;;
20567;SDS011;10442;49.932;11.592;2022-12-18T11:04:25;14.23;;;9.37;;
20567;SDS011;10442;49.932;11.592;2022-12-18T11:07:04;11.40;;;8.30;;
20567;SDS011;10442;49.932;11.592;2022-12-18T11:09:35;11.43;;;8.60;;
20567;SDS011;10442;49.932;11.592;2022-12-18T11:12:14;13.23;;;9.63;;
20567;SDS011;10442;49.932;11.592;2022-12-18T11:14:48;15.43;;;10.00;;
20567;SDS011;10442;49.932;11.592;2022-12-18T11:23:04;14.33;;;9.87;;
20567;SDS011;10442;49.932;11.592;2022-12-18T11:25:38;17.07;;;9.33;;
20567;SDS011;10442;49.932;11.592;2022-12-18T11:28:26;15.30;;;9.73;;
20567;SDS011;10442;49.932;11.592;2022-12-18T11:31:23;11.63;;;8.37;;
20567;SDS011;10442;49.932;11.592;2022-12-18T11:33:54;12.13;;;9.27;;
20567;SDS011;10442;49.932;11.592;2022-12-18T11:36:46;13.50;;;8.40;;
20567;SDS011;10442;49.932;11.592;2022-12-18T11:39:19;15.50;;;9.40;;
20567;SDS011;10442;49.932;11.592;2022-12-18T11:42:08;14.70;;;9.77;;
20567;SDS011;10442;49.932;11.592;2022-12-18T11:50:25;13.80;;;9.93;;
20567;SDS011;10442;49.932;11.592;2022-12-18T11:52:56;17.07;;;9.20;;
20567;SDS011;10442;49.932;11.592;2022-12-18T11:58:42;15.27;;;9.83;;
20567;SDS011;10442;49.932;11.592;2022-12-18T12:07:07;12.50;;;9.07;;
20567;SDS011;10442;49.932;11.592;2022-12-18T12:27:19;11.97;;;9.07;;
20567;SDS011;10442;49.932;11.592;2022-12-18T12:35:23;12.67;;;10.07;;
20567;SDS011;10442;49.932;11.592;2022-12-18T12:40:51;13.07;;;9.47;;
20567;SDS011;10442;49.932;11.592;2022-12-18T12:43:42;12.93;;;9.70;;
20567;SDS011;10442;49.932;11.592;2022-12-18T12:46:17;13.37;;;9.50;;
20567;SDS011;10442;49.932;11.592;2022-12-18T12:48:49;12.13;;;8.57;;
20567;SDS011;10442;49.932;11.592;2022-12-18T12:51:26;15.03;;;10.13;;
20567;SDS011;10442;49.932;11.592;2022-12-18T12:53:57;14.70;;;8.63;;
20567;SDS011;10442;49.932;11.592;2022-12-18T12:56:36;15.23;;;9.63;;
20567;SDS011;10442;49.932;11.592;2022-12-18T12:59:13;16.67;;;9.17;;
20567;SDS011;10442;49.932;11.592;2022-12-18T13:02:02;14.10;;;8.40;;
20567;SDS011;10442;49.932;11.592;2022-12-18T13:04:57;13.97;;;10.47;;
20567;SDS011;10442;49.932;11.592;2022-12-18T13:07:39;13.57;;;9.00;;
20567;SDS011;10442;49.932;11.592;2022-12-18T13:12:52;10.17;;;7.97;;
20567;SDS011;10442;49.932;11.592;2022-12-18T13:15:31;9.87;;;7.23;;
20567;SDS011;10442;49.932;11.592;2022-12-18T13:20:41;12.93;;;8.57;;
20567;SDS011;10442;49.932;11.592;2022-12-18T13:25:51;10.40;;;8.07;;
20567;SDS011;10442;49.932;11.592;2022-12-18T13:28:50;10.53;;;8.27;;
20567;SDS011;10442;49.932;11.592;2022-12-18T13:36:54;11.73;;;9.50;;
20567;SDS011;10442;49.932;11.592;2022-12-18T13:39:31;10.27;;;7.80;;
20567;SDS011;10442;49.932;11.592;2022-12-18T13:44:39;13.23;;;8.10;;
20567;SDS011;10442;49.932;11.592;2022-12-18T13:50:21;15.87;;;8.10;;
20567;SDS011;10442;49.932;11.592;2022-12-18T13:53:02;11.00;;;8.73;;
20567;SDS011;10442;49.932;11.592;2022-12-18T13:55:31;11.03;;;8.17;;
20567;SDS011;10442;49.932;11.592;2022-12-18T13:58:05;10.97;;;8.83;;
20567;SDS011;10442;49.932;11.592;2022-12-18T14:00:33;12.77;;;8.80;;
20567;SDS011;10442;49.932;11.592;2022-12-18T14:03:02;15.60;;;8.27;;
20567;SDS011;10442;49.932;11.592;2022-12-18T14:06:22;12.63;;;8.33;;
20567;SDS011;10442;49.932;11.592;2022-12-18T14:08:44;13.53;;;10.67;;
20567;SDS011;10442;49.932;11.592;2022-12-18T14:11:19;13.37;;;9.17;;
20567;SDS011;10442;49.932;11.592;2022-12-18T14:13:52;16.13;;;9.73;;
20567;SDS011;10442;49.932;11.592;2022-12-18T14:16:19;13.13;;;8.83;;
20567;SDS011;10442;49.932;11.592;2022-12-18T14:18:54;14.07;;;9.40;;
20567;SDS011;10442;49.932;11.592;2022-12-18T14:21:48;13.83;;;9.40;;
20567;SDS011;10442;49.932;11.592;2022-12-18T14:26:46;10.73;;;9.23;;
20567;SDS011;10442;49.932;11.592;2022-12-18T14:37:21;18.00;;;10.70;;
20567;SDS011;10442;49.932;11.592;2022-12-18T14:39:54;11.80;;;9.13;;
20567;SDS011;10442;49.932;11.592;2022-12-18T14:42:30;14.47;;;8.50;;
20567;SDS011;10442;49.932;11.592;2022-12-18T14:48:19;15.40;;;8.97;;
20567;SDS011;10442;49.932;11.592;2022-12-18T14:50:54;14.63;;;8.17;;
20567;SDS011;10442;49.932;11.592;2022-12-18T14:53:33;11.00;;;9.07;;
20567;SDS011;10442;49.932;11.592;2022-12-18T14:56:20;12.13;;;8.90;;
20567;SDS011;10442;49.932;11.592;2022-12-18T14:59:12;15.60;;;9.47;;
20567;SDS011;10442;49.932;11.592;2022-12-18T15:04:39;13.50;;;10.30;;
20567;SDS011;10442;49.932;11.592;2022-12-18T15:09:38;15.93;;;10.23;;
20567;SDS011;10442;49.932;11.592;2022-12-18T15:12:20;13.10;;;8.50;;
20567;SDS011;10442;49.932;11.592;2022-12-18T15:14:53;13.17;;;8.93;;
20567;SDS011;10442;49.932;11.592;2022-12-18T15:17:22;15.30;;;10.03;;
20567;SDS011;10442;49.932;11.592;2022-12-18T15:19:53;12.13;;;8.23;;
20567;SDS011;10442;49.932;11.592;2022-12-18T15:22:31;12.60;;;10.00;;
20567;SDS011;10442;49.932;11.592;2022-12-18T15:25:02;16.13;;;9.73;;
20567;SDS011;10442;49.932;11.592;2022-12-18T15:27:47;14.83;;;10.60;;
20567;SDS011;10442;49.932;11.592;2022-12-18T15:32:45;17.80;;;11.30;;
20567;SDS011;10442;49.932;11.592;2022-12-18T15:35:13;15.73;;;10.80;;
20567;SDS011;10442;49.932;11.592;2022-12-18T15:37:47;17.30;;;10.47;;
20567;SDS011;10442;49.932;11.592;2022-12-18T15:40:16;14.50;;;10.37;;
20567;SDS011;10442;49.932;11.592;2022-12-18T15:42:53;15.97;;;11.27;;
20567;SDS011;10442;49.932;11.592;2022-12-18T15:45:40;19.57;;;11.67;;
20567;SDS011;10442;49.932;11.592;2022-12-18T15:48:15;19.30;;;11.70;;
20567;SDS011;10442;49.932;11.592;2022-12-18T15:50:48;16.63;;;10.83;;
20567;SDS011;10442;49.932;11.592;2022-12-18T15:53:18;17.97;;;11.50;;
20567;SDS011;10442;49.932;11.592;2022-12-18T15:55:46;13.07;;;10.27;;
20567;SDS011;10442;49.932;11.592;2022-12-18T15:58:32;13.33;;;10.00;;
20567;SDS011;10442;49.932;11.592;2022-12-18T16:01:00;21.10;;;11.63;;
20567;SDS011;10442;49.932;11.592;2022-12-18T16:03:28;18.37;;;10.70;;
20567;SDS011;10442;49.932;11.592;2022-12-18T16:05:56;20.10;;;11.73;;
20567;SDS011;10442;49.932;11.592;2022-12-18T16:08:25;14.43;;;10.80;;
20567;SDS011;10442;49.932;11.592;2022-12-18T16:10:53;17.67;;;11.23;;
20567;SDS011;10442;49.932;11.592;2022-12-18T16:13:21;13.30;;;11.17;;
20567;SDS011;10442;49.932;11.592;2022-12-18T16:15:49;14.83;;;10.60;;
20567;SDS011;10442;49.932;11.592;2022-12-18T16:18:17;13.47;;;10.80;;
20567;SDS011;10442;49.932;11.592;2022-12-18T16:20:44;19.43;;;11.33;;
20567;SDS011;10442;49.932;11.592;2022-12-18T16:23:11;17.43;;;11.87;;
20567;SDS011;10442;49.932;11.592;2022-12-18T16:25:39;14.33;;;10.23;;
20567;SDS011;10442;49.932;11.592;2022-12-18T16:28:07;13.10;;;10.10;;
20567;SDS011;10442;49.932;11.592;2022-12-18T16:30:34;17.20;;;11.93;;
20567;SDS011;10442;49.932;11.592;2022-12-18T16:33:04;15.17;;;11.57;;
20567;SDS011;10442;49.932;11.592;2022-12-18T16:35:33;14.70;;;12.20;;
20567;SDS011;10442;49.932;11.592;2022-12-18T16:38:03;14.03;;;9.60;;
20567;SDS011;10442;49.932;11.592;2022-12-18T16:40:31;14.10;;;9.87;;
20567;SDS011;10442;49.932;11.592;2022-12-18T16:42:59;11.93;;;10.03;;
20567;SDS011;10442;49.932;11.592;2022-12-18T16:45:27;22.77;;;14.20;;
20567;SDS011;10442;49.932;11.592;2022-12-18T16:47:59;15.97;;;11.27;;
20567;SDS011;10442;49.932;11.592;2022-12-18T16:50:27;12.70;;;10.73;;
20567;SDS011;10442;49.932;11.592;2022-12-18T16:52:54;16.10;;;11.77;;
20567;SDS011;10442;49.932;11.592;2022-12-18T16:55:23;11.53;;;9.60;;
20567;SDS011;10442;49.932;11.592;2022-12-18T16:57:50;16.07;;;11.17;;
20567;SDS011;10442;49.932;11.592;2022-12-18T17:00:18;16.13;;;11.00;;
20567;SDS011;10442;49.932;11.592;2022-12-18T17:02:45;17.27;;;10.13;;
20567;SDS011;10442;49.932;11.592;2022-12-18T17:05:14;14.47;;;11.00;;
20567;SDS011;10442;49.932;11.592;2022-12-18T17:07:42;13.97;;;10.43;;
20567;SDS011;10442;49.932;11.592;2022-12-18T17:10:09;16.00;;;10.43;;
20567;SDS011;10442;49.932;11.592;2022-12-18T17:12:36;17.10;;;12.57;;
20567;SDS011;10442;49.932;11.592;2022-12-18T17:15:04;22.23;;;12.63;;
20567;SDS011;10442;49.932;11.592;2022-12-18T17:17:32;16.73;;;10.37;;
20567;SDS011;10442;49.932;11.592;2022-12-18T17:19:59;15.17;;;10.67;;
20567;SDS011;10442;49.932;11.592;2022-12-18T17:22:27;15.43;;;9.87;;